Time;durP1;ratioP1;P1;durP2;ratioP2;P2;SDS_P1;SDS_P2;PMS_P1;PMS_P2;Temp;Humidity;BMP_temperature;BMP_pressure;BME280_temperature;BME280_humidity;BME280_pressure;Samples;Min_cycle;Max_cycle;Signal;HPM_P1;HPM_P2
2022/08/08 00:01:30;;;;;;;58.57;3.13;;;;;;;;;;5092800;28;20465;-66
2022/08/08 00:04:03;;;;;;;59.00;3.50;;;;;;;;;;5092975;28;20534;-66
2022/08/08 00:06:36;;;;;;;59.00;3.33;;;;;;;;;;5092859;28;20791;-66
2022/08/08 00:09:06;;;;;;;59.97;3.30;;;;;;;;;;5092314;28;20450;-66
2022/08/08 00:11:38;;;;;;;59.40;3.53;;;;;;;;;;5092819;28;20474;-66
2022/08/08 00:14:07;;;;;;;60.67;3.57;;;;;;;;;;5092798;28;20453;-65
2022/08/08 00:16:40;;;;;;;59.97;3.43;;;;;;;;;;5092672;28;20443;-65
2022/08/08 00:19:11;;;;;;;58.77;3.20;;;;;;;;;;5092316;28;20456;-65
2022/08/08 00:21:41;;;;;;;59.20;3.20;;;;;;;;;;5092424;28;20472;-65
2022/08/08 00:24:12;;;;;;;58.80;3.33;;;;;;;;;;5092730;28;20488;-65
2022/08/08 00:26:42;;;;;;;59.20;3.40;;;;;;;;;;5092612;28;20454;-65
2022/08/08 00:29:12;;;;;;;59.67;3.40;;;;;;;;;;5092152;28;20971;-65
2022/08/08 00:31:43;;;;;;;59.10;3.20;;;;;;;;;;5092640;28;20469;-65
2022/08/08 00:37:11;;;;;;;58.80;3.40;;;;;;;;;;5092391;28;20555;-65
2022/08/08 00:39:45;;;;;;;59.10;3.53;;;;;;;;;;5091907;28;20451;-65
2022/08/08 00:42:38;;;;;;;60.60;3.00;;;;;;;;;;5092262;28;21014;-65
2022/08/08 00:45:29;;;;;;;58.70;3.20;;;;;;;;;;5092242;28;20488;-65
2022/08/08 00:48:14;;;;;;;59.00;3.27;;;;;;;;;;5035245;28;20441;-65
2022/08/08 00:51:02;;;;;;;58.80;3.00;;;;;;;;;;5081412;28;20488;-65
2022/08/08 00:53:35;;;;;;;59.77;3.80;;;;;;;;;;5092252;28;20452;-66
2022/08/08 00:56:21;;;;;;;59.00;3.60;;;;;;;;;;5092211;28;20442;-65
2022/08/08 00:59:05;;;;;;;59.00;3.67;;;;;;;;;;5091637;28;20452;-65
2022/08/08 01:01:34;;;;;;;59.00;3.27;;;;;;;;;;5092470;28;20476;-65
2022/08/08 01:04:10;;;;;;;58.50;3.20;;;;;;;;;;5092079;28;20487;-66
2022/08/08 01:06:55;;;;;;;60.17;3.40;;;;;;;;;;5092141;28;20453;-65
2022/08/08 01:09:37;;;;;;;60.17;3.70;;;;;;;;;;5091524;28;20445;-66
2022/08/08 01:12:25;;;;;;;59.13;3.50;;;;;;;;;;5092018;28;20469;-66
2022/08/08 01:15:15;;;;;;;59.67;3.50;;;;;;;;;;5091897;28;20445;-65
2022/08/08 01:17:57;;;;;;;59.03;2.90;;;;;;;;;;5091826;28;20820;-66
2022/08/08 01:20:32;;;;;;;59.40;3.27;;;;;;;;;;5091334;28;20453;-65
2022/08/08 01:23:21;;;;;;;59.07;3.27;;;;;;;;;;5092025;28;20780;-65
2022/08/08 01:26:01;;;;;;;59.10;3.40;;;;;;;;;;5087074;28;20451;-65
2022/08/08 01:28:43;;;;;;;58.97;3.20;;;;;;;;;;5091832;28;20430;-66
2022/08/08 01:31:20;;;;;;;59.40;3.57;;;;;;;;;;5091710;28;20469;-66
2022/08/08 01:34:05;;;;;;;59.30;3.43;;;;;;;;;;5090462;28;20452;-65
2022/08/08 01:37:09;;;;;;;59.73;3.30;;;;;;;;;;5091678;28;20945;-65
2022/08/08 01:39:44;;;;;;;59.10;3.40;;;;;;;;;;5091348;28;20438;-66
2022/08/08 01:42:13;;;;;;;60.50;3.93;;;;;;;;;;5090693;28;20469;-65
2022/08/08 01:45:01;;;;;;;58.83;3.40;;;;;;;;;;5091514;28;20480;-66
2022/08/08 01:47:38;;;;;;;59.60;3.80;;;;;;;;;;5086820;28;20460;-65
2022/08/08 01:50:07;;;;;;;58.90;3.40;;;;;;;;;;5091007;28;20460;-66
2022/08/08 01:52:41;;;;;;;59.20;3.30;;;;;;;;;;5093402;28;20451;-65
2022/08/08 01:55:12;;;;;;;59.03;3.33;;;;;;;;;;5095554;28;20449;-66
2022/08/08 01:57:42;;;;;;;59.37;3.80;;;;;;;;;;5095395;28;20507;-65
2022/08/08 02:00:14;;;;;;;58.80;3.23;;;;;;;;;;5094823;28;20448;-66
2022/08/08 02:02:52;;;;;;;58.87;3.10;;;;;;;;;;5095130;28;20440;-65
2022/08/08 02:05:27;;;;;;;58.47;3.10;;;;;;;;;;5095055;28;21063;-66
2022/08/08 02:08:06;;;;;;;59.30;3.60;;;;;;;;;;5095283;28;20451;-66
2022/08/08 02:10:38;;;;;;;59.60;3.70;;;;;;;;;;5094810;28;20515;-65
2022/08/08 02:13:11;;;;;;;59.97;3.50;;;;;;;;;;5094879;28;21002;-66
2022/08/08 02:15:40;;;;;;;59.30;3.80;;;;;;;;;;5094925;28;20933;-66
2022/08/08 02:18:11;;;;;;;59.17;3.80;;;;;;;;;;5094808;28;20456;-65
2022/08/08 02:20:42;;;;;;;58.80;3.00;;;;;;;;;;5094721;28;20477;-66
2022/08/08 02:23:14;;;;;;;60.60;3.50;;;;;;;;;;5094915;28;20446;-66
2022/08/08 02:25:45;;;;;;;58.97;3.30;;;;;;;;;;5094616;28;20476;-66
2022/08/08 02:28:16;;;;;;;60.17;3.53;;;;;;;;;;5094644;28;20964;-66
2022/08/08 02:30:58;;;;;;;59.40;3.93;;;;;;;;;;5094399;28;20495;-65
2022/08/08 02:33:37;;;;;;;60.47;3.53;;;;;;;;;;5094798;28;20444;-66
2022/08/08 02:36:11;;;;;;;59.23;3.60;;;;;;;;;;5094547;28;20452;-66
2022/08/08 02:38:56;;;;;;;59.10;3.33;;;;;;;;;;5094457;28;20500;-65
2022/08/08 02:41:36;;;;;;;59.03;3.40;;;;;;;;;;5094144;28;20466;-65
2022/08/08 02:44:27;;;;;;;59.10;3.30;;;;;;;;;;5094370;28;20529;-67
2022/08/08 02:47:01;;;;;;;58.60;3.20;;;;;;;;;;5078908;28;20469;-67
2022/08/08 02:50:02;;;;;;;58.60;3.27;;;;;;;;;;5094358;28;20457;-68
2022/08/08 02:52:43;;;;;;;58.73;3.07;;;;;;;;;;5031719;28;20934;-67
2022/08/08 02:55:27;;;;;;;58.60;3.23;;;;;;;;;;5031748;28;20436;-68
2022/08/08 03:01:26;;;;;;;59.83;3.40;;;;;;;;;;5029755;28;20625;-67
2022/08/08 03:04:07;;;;;;;58.73;3.03;;;;;;;;;;5031080;28;20459;-67
2022/08/08 03:06:49;;;;;;;59.10;3.60;;;;;;;;;;5031525;28;20940;-67
2022/08/08 03:09:34;;;;;;;58.87;3.33;;;;;;;;;;4989447;28;20522;-65
2022/08/08 03:12:13;;;;;;;58.57;3.43;;;;;;;;;;5031373;28;20549;-65
2022/08/08 03:14:50;;;;;;;59.10;3.63;;;;;;;;;;5031451;28;20849;-67
2022/08/08 03:17:21;;;;;;;60.83;4.30;;;;;;;;;;5031364;28;21048;-67
2022/08/08 03:20:06;;;;;;;58.83;3.63;;;;;;;;;;5030944;28;20451;-67
2022/08/08 03:22:33;;;;;;;62.00;3.73;;;;;;;;;;5031104;28;20492;-67
2022/08/08 03:25:04;;;;;;;59.37;3.47;;;;;;;;;;5031142;28;20461;-67
2022/08/08 03:27:35;;;;;;;59.40;3.40;;;;;;;;;;5031263;28;20459;-67
2022/08/08 03:30:08;;;;;;;59.40;3.40;;;;;;;;;;5030711;28;20469;-67
2022/08/08 03:35:21;;;;;;;59.53;4.10;;;;;;;;;;5070189;28;20476;-67
2022/08/08 03:37:48;;;;;;;58.97;3.00;;;;;;;;;;5093350;28;20475;-67
2022/08/08 03:40:19;;;;;;;59.00;3.83;;;;;;;;;;5092909;28;20445;-64
2022/08/08 03:42:46;;;;;;;59.50;3.30;;;;;;;;;;5093379;28;20501;-66
2022/08/08 03:45:18;;;;;;;59.37;3.67;;;;;;;;;;5093329;28;20444;-67
2022/08/08 03:47:45;;;;;;;59.60;3.97;;;;;;;;;;5093211;28;20457;-67
2022/08/08 03:50:16;;;;;;;61.80;4.37;;;;;;;;;;5092690;28;20457;-67
2022/08/08 03:52:43;;;;;;;61.37;4.10;;;;;;;;;;5093148;28;20444;-67
2022/08/08 03:55:11;;;;;;;59.30;3.60;;;;;;;;;;5092752;28;21004;-67
2022/08/08 03:57:39;;;;;;;59.80;3.63;;;;;;;;;;5092955;28;20455;-67
2022/08/08 04:00:11;;;;;;;59.77;3.73;;;;;;;;;;5092786;28;20451;-67
2022/08/08 04:02:38;;;;;;;59.40;3.70;;;;;;;;;;5093007;28;20529;-67
2022/08/08 04:05:05;;;;;;;59.37;3.30;;;;;;;;;;5093034;28;20930;-67
2022/08/08 04:07:36;;;;;;;60.07;3.87;;;;;;;;;;5092767;28;20448;-67
2022/08/08 04:10:03;;;;;;;60.37;4.37;;;;;;;;;;5092706;28;20447;-67
2022/08/08 04:12:30;;;;;;;58.97;3.30;;;;;;;;;;5092568;28;20470;-67
2022/08/08 04:14:59;;;;;;;59.10;3.87;;;;;;;;;;5091903;28;20992;-67
2022/08/08 04:17:26;;;;;;;59.07;3.40;;;;;;;;;;5092727;28;20848;-67
2022/08/08 04:19:55;;;;;;;59.10;3.47;;;;;;;;;;5092929;28;20454;-67
2022/08/08 04:22:25;;;;;;;59.30;3.70;;;;;;;;;;5092638;28;20507;-67
2022/08/08 04:24:52;;;;;;;59.60;3.50;;;;;;;;;;5092793;28;20803;-67
2022/08/08 04:27:19;;;;;;;59.80;4.13;;;;;;;;;;5092630;28;20455;-67
2022/08/08 04:29:46;;;;;;;59.30;3.77;;;;;;;;;;5092240;28;20451;-67
2022/08/08 04:32:15;;;;;;;60.17;3.87;;;;;;;;;;5092389;28;20468;-67
2022/08/08 04:34:42;;;;;;;59.87;3.97;;;;;;;;;;5092193;28;20555;-67
2022/08/08 04:37:09;;;;;;;59.30;3.67;;;;;;;;;;5092271;28;20861;-67
2022/08/08 04:39:37;;;;;;;59.40;3.50;;;;;;;;;;5092143;28;20469;-67
2022/08/08 04:42:04;;;;;;;59.07;3.47;;;;;;;;;;5092154;28;20472;-67
2022/08/08 04:44:31;;;;;;;59.20;3.63;;;;;;;;;;5092170;28;20528;-67
2022/08/08 04:46:58;;;;;;;60.90;4.17;;;;;;;;;;5092215;28;20451;-67
2022/08/08 04:49:27;;;;;;;60.00;3.80;;;;;;;;;;5091730;28;20471;-67
2022/08/08 04:51:54;;;;;;;58.90;3.67;;;;;;;;;;5092281;28;20460;-67
2022/08/08 04:54:21;;;;;;;59.27;3.43;;;;;;;;;;5092179;28;20809;-67
2022/08/08 04:56:48;;;;;;;59.30;3.57;;;;;;;;;;5092242;28;20453;-67
2022/08/08 04:59:15;;;;;;;59.57;3.67;;;;;;;;;;5091802;28;20451;-67
2022/08/08 05:01:42;;;;;;;58.37;3.23;;;;;;;;;;5092100;28;20473;-67
2022/08/08 05:04:10;;;;;;;59.97;3.57;;;;;;;;;;5092197;28;20455;-67
2022/08/08 05:06:38;;;;;;;60.07;4.03;;;;;;;;;;5092120;28;20444;-67
2022/08/08 05:09:06;;;;;;;59.17;3.73;;;;;;;;;;5091860;28;20447;-67
2022/08/08 05:11:33;;;;;;;58.70;3.20;;;;;;;;;;5091927;28;20523;-67
2022/08/08 05:14:00;;;;;;;59.27;3.57;;;;;;;;;;5091947;28;20450;-67
2022/08/08 05:16:27;;;;;;;59.40;3.47;;;;;;;;;;5091664;28;21017;-73
2022/08/08 05:18:55;;;;;;;59.03;3.80;;;;;;;;;;5091563;28;20448;-67
2022/08/08 05:21:22;;;;;;;59.00;3.40;;;;;;;;;;5091855;28;20481;-67
2022/08/08 05:23:53;;;;;;;59.33;3.67;;;;;;;;;;5091721;28;20453;-67
2022/08/08 05:26:20;;;;;;;58.87;3.13;;;;;;;;;;5093037;28;20502;-67
2022/08/08 05:28:47;;;;;;;59.07;3.17;;;;;;;;;;5095290;28;20442;-67
2022/08/08 05:31:14;;;;;;;61.50;3.10;;;;;;;;;;5095992;28;20468;-67
2022/08/08 05:33:41;;;;;;;59.00;2.93;;;;;;;;;;5095939;28;20448;-67
2022/08/08 05:36:10;;;;;;;63.90;3.17;;;;;;;;;;5095749;28;20492;-67
2022/08/08 05:38:43;;;;;;;59.00;3.00;;;;;;;;;;5095347;28;20455;-67
2022/08/08 05:41:13;;;;;;;59.10;3.23;;;;;;;;;;5095628;28;20838;-67
2022/08/08 05:43:40;;;;;;;59.60;3.47;;;;;;;;;;5095521;28;20453;-67
2022/08/08 05:46:07;;;;;;;61.23;3.23;;;;;;;;;;5095494;28;20442;-67
2022/08/08 05:48:34;;;;;;;58.57;2.80;;;;;;;;;;5095285;28;20454;-67
2022/08/08 05:51:02;;;;;;;58.97;3.60;;;;;;;;;;5095303;28;20480;-67
2022/08/08 05:53:29;;;;;;;58.70;3.63;;;;;;;;;;5095395;28;20453;-67
2022/08/08 05:55:57;;;;;;;59.57;3.47;;;;;;;;;;5095219;28;20470;-67
2022/08/08 05:58:28;;;;;;;58.70;3.37;;;;;;;;;;5095435;28;20801;-67
2022/08/08 06:00:56;;;;;;;59.07;3.33;;;;;;;;;;5095229;28;20944;-67
2022/08/08 06:03:23;;;;;;;58.37;2.90;;;;;;;;;;5095286;28;20448;-67
2022/08/08 06:05:51;;;;;;;58.83;3.60;;;;;;;;;;5095359;28;20442;-67
2022/08/08 06:08:23;;;;;;;61.00;3.40;;;;;;;;;;5095015;28;20442;-67
2022/08/08 06:10:51;;;;;;;58.80;3.20;;;;;;;;;;5095224;28;20465;-67
2022/08/08 06:13:19;;;;;;;58.67;3.20;;;;;;;;;;5095018;28;20450;-67
2022/08/08 06:15:48;;;;;;;58.97;3.13;;;;;;;;;;5095068;28;20508;-67
2022/08/08 06:18:16;;;;;;;60.57;3.30;;;;;;;;;;5095048;28;20457;-67
2022/08/08 06:20:43;;;;;;;60.23;3.83;;;;;;;;;;5094532;28;20461;-67
2022/08/08 06:23:10;;;;;;;58.70;3.00;;;;;;;;;;5094985;28;20446;-67
2022/08/08 06:25:40;;;;;;;59.00;3.30;;;;;;;;;;5095114;28;20910;-67
2022/08/08 06:28:11;;;;;;;58.97;3.30;;;;;;;;;;5094804;28;20442;-67
2022/08/08 06:30:39;;;;;;;59.20;3.50;;;;;;;;;;5094869;28;20477;-67
2022/08/08 06:33:08;;;;;;;59.37;4.17;;;;;;;;;;5094723;28;20446;-67
2022/08/08 06:35:36;;;;;;;58.90;3.30;;;;;;;;;;5094475;28;21101;-67
2022/08/08 06:38:06;;;;;;;59.37;3.30;;;;;;;;;;5093728;28;20453;-67
2022/08/08 06:40:34;;;;;;;61.80;3.40;;;;;;;;;;5094339;28;20466;-67
2022/08/08 06:43:04;;;;;;;58.80;3.60;;;;;;;;;;5095024;28;20442;-67
2022/08/08 06:45:32;;;;;;;59.10;3.40;;;;;;;;;;5094485;28;20831;-67
2022/08/08 06:48:00;;;;;;;58.60;3.00;;;;;;;;;;5094318;28;20519;-67
2022/08/08 06:50:31;;;;;;;58.77;3.43;;;;;;;;;;5093905;28;20950;-67
2022/08/08 06:52:59;;;;;;;58.47;3.60;;;;;;;;;;5094252;28;20454;-67
2022/08/08 06:55:26;;;;;;;59.03;3.47;;;;;;;;;;5094277;28;20486;-67
2022/08/08 06:57:53;;;;;;;59.50;3.73;;;;;;;;;;5094281;28;20449;-67
2022/08/08 07:00:21;;;;;;;59.00;3.00;;;;;;;;;;5093823;28;20894;-65
2022/08/08 07:02:54;;;;;;;58.57;3.03;;;;;;;;;;5094097;28;20446;-65
2022/08/08 07:05:23;;;;;;;59.60;3.63;;;;;;;;;;5094403;28;20453;-65
2022/08/08 07:07:58;;;;;;;58.67;3.37;;;;;;;;;;5094149;28;20447;-65
2022/08/08 07:10:26;;;;;;;58.80;3.40;;;;;;;;;;5093931;28;20447;-65
2022/08/08 07:12:54;;;;;;;62.03;3.70;;;;;;;;;;5094621;28;20450;-65
2022/08/08 07:15:27;;;;;;;59.00;3.90;;;;;;;;;;5093979;28;21008;-65
2022/08/08 07:17:57;;;;;;;59.30;3.10;;;;;;;;;;5093842;28;20934;-65
2022/08/08 07:20:27;;;;;;;58.87;3.67;;;;;;;;;;5093441;28;20450;-65
2022/08/08 07:22:59;;;;;;;58.87;3.30;;;;;;;;;;5093779;28;20451;-65
2022/08/08 07:25:26;;;;;;;59.57;3.40;;;;;;;;;;5093662;28;20452;-65
2022/08/08 07:27:59;;;;;;;58.77;3.30;;;;;;;;;;5093513;28;20449;-67
2022/08/08 07:30:26;;;;;;;58.30;2.90;;;;;;;;;;5093358;28;20446;-67
2022/08/08 07:32:54;;;;;;;58.80;3.63;;;;;;;;;;5093607;28;20449;-67
2022/08/08 07:35:22;;;;;;;58.90;3.40;;;;;;;;;;5093254;28;20461;-67
2022/08/08 07:37:50;;;;;;;58.60;3.13;;;;;;;;;;5093433;28;20454;-67
2022/08/08 07:40:19;;;;;;;58.50;3.10;;;;;;;;;;5092935;28;20466;-67
2022/08/08 07:42:46;;;;;;;59.00;3.33;;;;;;;;;;5093496;28;20449;-67
2022/08/08 07:45:13;;;;;;;58.90;3.20;;;;;;;;;;5093445;28;20450;-67
2022/08/08 07:47:41;;;;;;;59.00;3.13;;;;;;;;;;5093212;28;20530;-67
2022/08/08 07:50:08;;;;;;;59.07;3.40;;;;;;;;;;5092625;28;20468;-67
2022/08/08 07:52:36;;;;;;;58.13;3.27;;;;;;;;;;5093050;28;20446;-67
2022/08/08 07:55:04;;;;;;;58.80;3.20;;;;;;;;;;5093042;28;20442;-67
2022/08/08 07:57:39;;;;;;;58.70;3.10;;;;;;;;;;5092914;28;20489;-67
2022/08/08 08:00:08;;;;;;;58.90;3.03;;;;;;;;;;5092834;28;20447;-67
2022/08/08 08:02:38;;;;;;;58.80;3.17;;;;;;;;;;5093007;28;20450;-67
2022/08/08 08:05:11;;;;;;;60.53;3.17;;;;;;;;;;5092761;28;20454;-67
2022/08/08 08:07:39;;;;;;;58.30;2.90;;;;;;;;;;5092884;28;20454;-67
2022/08/08 08:10:08;;;;;;;58.30;3.27;;;;;;;;;;5092642;28;20446;-67
2022/08/08 08:12:38;;;;;;;59.33;3.20;;;;;;;;;;5092940;28;20823;-67
2022/08/08 08:15:06;;;;;;;58.07;3.33;;;;;;;;;;5092720;28;20479;-67
2022/08/08 08:17:39;;;;;;;58.60;2.90;;;;;;;;;;5092592;28;20486;-67
2022/08/08 08:20:08;;;;;;;58.27;2.57;;;;;;;;;;5092517;28;20452;-67
2022/08/08 08:22:35;;;;;;;58.07;2.80;;;;;;;;;;5092726;28;20453;-67
2022/08/08 08:25:03;;;;;;;61.00;3.30;;;;;;;;;;5092625;28;20451;-67
2022/08/08 08:27:30;;;;;;;58.80;3.30;;;;;;;;;;5092578;28;20438;-66
2022/08/08 08:29:58;;;;;;;58.97;3.27;;;;;;;;;;5092110;28;20448;-67
2022/08/08 08:32:26;;;;;;;58.97;3.17;;;;;;;;;;5092513;28;20548;-65
2022/08/08 08:34:53;;;;;;;59.53;3.40;;;;;;;;;;5092488;28;20456;-65
2022/08/08 08:37:20;;;;;;;58.80;3.50;;;;;;;;;;5092396;28;20912;-65
2022/08/08 08:39:47;;;;;;;58.70;3.40;;;;;;;;;;5092076;28;20446;-65
2022/08/08 08:42:15;;;;;;;58.63;3.23;;;;;;;;;;5092207;28;20465;-65
2022/08/08 08:44:42;;;;;;;59.30;3.20;;;;;;;;;;5092150;28;20448;-65
2022/08/08 08:47:11;;;;;;;59.00;3.33;;;;;;;;;;5092353;28;20611;-65
2022/08/08 08:49:38;;;;;;;59.77;3.27;;;;;;;;;;5091646;28;20457;-65
2022/08/08 08:52:06;;;;;;;58.50;3.20;;;;;;;;;;5092180;28;20552;-65
2022/08/08 08:54:34;;;;;;;58.97;3.40;;;;;;;;;;5092167;28;20452;-65
2022/08/08 08:57:03;;;;;;;59.20;3.67;;;;;;;;;;5091948;28;20486;-65
2022/08/08 08:59:32;;;;;;;60.83;3.50;;;;;;;;;;5091589;28;20451;-65
2022/08/08 09:02:00;;;;;;;59.33;3.63;;;;;;;;;;5091684;28;20474;-65
2022/08/08 09:04:32;;;;;;;59.57;3.20;;;;;;;;;;5092074;28;20809;-65
2022/08/08 09:06:59;;;;;;;58.50;3.00;;;;;;;;;;5092127;28;20621;-65
2022/08/08 09:09:27;;;;;;;58.57;2.90;;;;;;;;;;5091392;28;20442;-65
2022/08/08 09:11:55;;;;;;;58.37;2.90;;;;;;;;;;5091741;28;20482;-65
2022/08/08 09:14:23;;;;;;;59.00;3.30;;;;;;;;;;5092120;28;20891;-66
2022/08/08 09:16:51;;;;;;;58.90;3.20;;;;;;;;;;5091709;28;20478;-65
2022/08/08 09:19:18;;;;;;;59.00;3.10;;;;;;;;;;5091586;28;20453;-65
2022/08/08 09:21:47;;;;;;;58.53;2.77;;;;;;;;;;5091632;28;20978;-65
2022/08/08 09:24:15;;;;;;;58.40;2.80;;;;;;;;;;5091704;28;20443;-65
2022/08/08 09:26:44;;;;;;;58.60;3.07;;;;;;;;;;5091994;28;20438;-65
2022/08/08 09:29:13;;;;;;;58.27;2.90;;;;;;;;;;5091381;28;20446;-66
2022/08/08 09:31:48;;;;;;;58.60;3.40;;;;;;;;;;5091755;28;20470;-65
2022/08/08 09:34:17;;;;;;;59.13;3.50;;;;;;;;;;5091732;28;20930;-65
2022/08/08 09:36:45;;;;;;;58.80;3.40;;;;;;;;;;5091544;28;20478;-65
2022/08/08 09:39:17;;;;;;;59.87;3.47;;;;;;;;;;5091252;28;20442;-65
2022/08/08 09:41:44;;;;;;;58.37;2.93;;;;;;;;;;5091751;28;20501;-65
2022/08/08 09:44:16;;;;;;;58.90;3.30;;;;;;;;;;5091618;28;20930;-65
2022/08/08 09:46:45;;;;;;;59.30;3.00;;;;;;;;;;5091586;28;20442;-66
2022/08/08 09:49:12;;;;;;;58.77;3.30;;;;;;;;;;5091082;28;20840;-66
2022/08/08 09:51:40;;;;;;;58.90;2.73;;;;;;;;;;5091707;28;20459;-66
2022/08/08 09:54:07;;;;;;;58.27;2.73;;;;;;;;;;5091739;28;20446;-66
2022/08/08 09:56:37;;;;;;;58.50;3.00;;;;;;;;;;5091428;28;20481;-66
2022/08/08 09:59:07;;;;;;;57.87;2.90;;;;;;;;;;5091220;28;20458;-66
2022/08/08 10:01:36;;;;;;;58.50;3.20;;;;;;;;;;5091374;28;20467;-66
2022/08/08 10:04:06;;;;;;;58.17;2.93;;;;;;;;;;5091367;28;20446;-66
2022/08/08 10:06:33;;;;;;;58.27;2.87;;;;;;;;;;5091601;28;20438;-66
2022/08/08 10:09:00;;;;;;;58.50;3.20;;;;;;;;;;5091240;28;20450;-66
2022/08/08 10:11:28;;;;;;;58.20;2.70;;;;;;;;;;5091609;28;20992;-66
2022/08/08 10:13:58;;;;;;;58.23;2.70;;;;;;;;;;5093655;28;20451;-66
2022/08/08 10:16:36;;;;;;;58.17;2.60;;;;;;;;;;5094755;28;20473;-66
2022/08/08 10:19:03;;;;;;;58.03;2.50;;;;;;;;;;5094648;28;20449;-66
2022/08/08 10:21:32;;;;;;;58.17;2.97;;;;;;;;;;5094790;28;20462;-66
2022/08/08 10:24:04;;;;;;;58.10;2.73;;;;;;;;;;5094947;28;20446;-66
2022/08/08 10:26:33;;;;;;;57.87;2.30;;;;;;;;;;5094889;28;20446;-66
2022/08/08 10:29:04;;;;;;;57.80;2.50;;;;;;;;;;5094670;28;20450;-66
2022/08/08 10:34:19;;;;;;;58.10;2.50;;;;;;;;;;5094744;28;20418;-66
2022/08/08 10:36:46;;;;;;;60.10;2.90;;;;;;;;;;5094536;28;20482;-66
2022/08/08 10:39:17;;;;;;;57.63;2.40;;;;;;;;;;5093973;28;20442;-66
2022/08/08 10:41:45;;;;;;;57.80;2.60;;;;;;;;;;5094648;28;20652;-66
2022/08/08 10:44:16;;;;;;;57.47;2.60;;;;;;;;;;5094361;28;20446;-66
2022/08/08 10:46:43;;;;;;;58.10;3.00;;;;;;;;;;5094349;28;20447;-66
2022/08/08 10:49:19;;;;;;;57.60;2.20;;;;;;;;;;5093948;28;20461;-66
2022/08/08 10:51:47;;;;;;;57.27;2.23;;;;;;;;;;5094049;28;20474;-66
2022/08/08 10:54:20;;;;;;;56.73;2.00;;;;;;;;;;5094444;28;20542;-67
2022/08/08 10:56:47;;;;;;;56.63;2.40;;;;;;;;;;5094257;28;20544;-67
2022/08/08 10:59:15;;;;;;;56.67;2.10;;;;;;;;;;5093903;28;20825;-67
2022/08/08 11:01:46;;;;;;;57.00;2.20;;;;;;;;;;5094027;28;20555;-67
2022/08/08 11:04:13;;;;;;;56.77;2.10;;;;;;;;;;5093991;28;20453;-67
2022/08/08 11:06:40;;;;;;;56.57;2.07;;;;;;;;;;5094293;28;20799;-67
2022/08/08 11:09:09;;;;;;;56.80;2.23;;;;;;;;;;5093657;28;20453;-67
2022/08/08 11:11:39;;;;;;;57.20;2.40;;;;;;;;;;5093987;28;20471;-68
2022/08/08 11:14:06;;;;;;;57.90;2.70;;;;;;;;;;5093898;28;20443;-68
2022/08/08 11:16:36;;;;;;;57.03;2.10;;;;;;;;;;5093753;28;20516;-67
2022/08/08 11:19:04;;;;;;;56.60;2.20;;;;;;;;;;5093332;28;20972;-67
2022/08/08 11:21:35;;;;;;;56.97;2.17;;;;;;;;;;5093872;28;20552;-67
2022/08/08 11:24:04;;;;;;;56.47;2.10;;;;;;;;;;5093487;28;20787;-67
2022/08/08 11:26:32;;;;;;;56.90;2.10;;;;;;;;;;5093622;28;20449;-67
2022/08/08 11:29:02;;;;;;;56.90;2.50;;;;;;;;;;5093266;28;20449;-68
2022/08/08 11:31:30;;;;;;;57.30;2.50;;;;;;;;;;5093390;28;20470;-67
2022/08/08 11:34:02;;;;;;;56.53;2.10;;;;;;;;;;5093437;28;20450;-67
2022/08/08 11:36:29;;;;;;;56.77;2.07;;;;;;;;;;5093635;28;20857;-67
2022/08/08 11:38:57;;;;;;;56.77;2.23;;;;;;;;;;5093021;28;20946;-67
2022/08/08 11:41:24;;;;;;;56.97;2.60;;;;;;;;;;5093319;28;20985;-67
2022/08/08 11:43:51;;;;;;;57.30;2.33;;;;;;;;;;5093215;28;20446;-67
2022/08/08 11:46:18;;;;;;;57.40;2.53;;;;;;;;;;5093507;28;20442;-67
2022/08/08 11:48:46;;;;;;;57.40;2.30;;;;;;;;;;5092840;28;20485;-67
2022/08/08 11:51:16;;;;;;;57.57;2.53;;;;;;;;;;5093326;28;20587;-67
2022/08/08 11:53:43;;;;;;;57.53;2.93;;;;;;;;;;5093326;28;20829;-67
2022/08/08 11:56:18;;;;;;;57.10;2.30;;;;;;;;;;5093114;28;20636;-67
2022/08/08 11:58:45;;;;;;;57.17;2.13;;;;;;;;;;5092710;28;20445;-67
2022/08/08 12:01:12;;;;;;;57.13;2.27;;;;;;;;;;5093118;28;20466;-67
2022/08/08 12:03:45;;;;;;;57.27;2.30;;;;;;;;;;5092986;28;20946;-67
2022/08/08 12:06:13;;;;;;;59.93;2.50;;;;;;;;;;5093043;28;20452;-67
2022/08/08 12:08:42;;;;;;;57.50;2.40;;;;;;;;;;5092509;28;20514;-67
2022/08/08 12:11:13;;;;;;;57.30;2.30;;;;;;;;;;5092676;28;20470;-67
2022/08/08 12:13:40;;;;;;;57.13;2.03;;;;;;;;;;5092910;28;20819;-67
2022/08/08 12:16:08;;;;;;;56.57;1.90;;;;;;;;;;5092713;28;20456;-67
2022/08/08 12:18:44;;;;;;;56.93;2.20;;;;;;;;;;5092525;28;20492;-67
2022/08/08 12:21:20;;;;;;;56.70;2.30;;;;;;;;;;5092698;28;20548;-67
2022/08/08 12:23:48;;;;;;;57.77;2.50;;;;;;;;;;5092876;28;20870;-67
2022/08/08 12:26:18;;;;;;;56.90;2.63;;;;;;;;;;5092775;28;20470;-67
2022/08/08 12:28:54;;;;;;;57.00;2.40;;;;;;;;;;5092044;28;20478;-67
2022/08/08 12:31:30;;;;;;;56.57;2.10;;;;;;;;;;5092952;28;20478;-67
2022/08/08 12:33:57;;;;;;;56.70;2.27;;;;;;;;;;5092389;28;20446;-67
2022/08/08 12:36:24;;;;;;;57.17;2.33;;;;;;;;;;5091928;28;20754;-67
2022/08/08 12:38:53;;;;;;;56.70;2.40;;;;;;;;;;5092230;28;20822;-67
2022/08/08 12:41:21;;;;;;;56.20;2.13;;;;;;;;;;5092355;28;20473;-67
2022/08/08 12:43:49;;;;;;;56.80;2.20;;;;;;;;;;5092207;28;20490;-67
2022/08/08 12:46:17;;;;;;;56.67;2.20;;;;;;;;;;5092143;28;20451;-67
2022/08/08 12:48:53;;;;;;;56.70;2.20;;;;;;;;;;5091918;28;20663;-67
2022/08/08 12:51:21;;;;;;;57.40;2.40;;;;;;;;;;5092296;28;20469;-67
2022/08/08 12:53:58;;;;;;;57.00;2.43;;;;;;;;;;5092254;28;20445;-67
2022/08/08 12:56:32;;;;;;;56.47;2.10;;;;;;;;;;5092237;28;20477;-67
2022/08/08 12:58:59;;;;;;;56.67;2.20;;;;;;;;;;5091605;28;20453;-67
2022/08/08 13:01:34;;;;;;;56.60;2.10;;;;;;;;;;5092188;28;20842;-67
2022/08/08 13:04:01;;;;;;;56.93;2.20;;;;;;;;;;5092069;28;20445;-67
2022/08/08 13:06:28;;;;;;;56.60;2.30;;;;;;;;;;5092025;28;20446;-67
2022/08/08 13:09:08;;;;;;;57.50;2.17;;;;;;;;;;5091517;28;20478;-67
2022/08/08 13:11:37;;;;;;;56.70;2.70;;;;;;;;;;5091745;28;21033;-67
2022/08/08 13:14:09;;;;;;;56.73;2.23;;;;;;;;;;5091818;28;20453;-67
2022/08/08 13:16:37;;;;;;;56.37;2.10;;;;;;;;;;5092029;28;20446;-67
2022/08/08 13:19:06;;;;;;;56.50;2.50;;;;;;;;;;5091618;28;20446;-67
2022/08/08 13:21:33;;;;;;;56.67;2.50;;;;;;;;;;5091691;28;20466;-68
2022/08/08 13:24:02;;;;;;;56.40;2.10;;;;;;;;;;5091788;28;20465;-68
2022/08/08 13:26:31;;;;;;;55.87;2.37;;;;;;;;;;5091904;28;20817;-68
2022/08/08 13:28:59;;;;;;;56.40;2.00;;;;;;;;;;5091397;28;20573;-68
2022/08/08 13:31:26;;;;;;;56.50;2.50;;;;;;;;;;5091671;28;20467;-68
2022/08/08 13:33:53;;;;;;;56.37;2.00;;;;;;;;;;5091715;28;20456;-67
2022/08/08 13:36:20;;;;;;;56.43;2.07;;;;;;;;;;5091682;28;20442;-67
2022/08/08 13:38:47;;;;;;;56.40;2.10;;;;;;;;;;5091542;28;20442;-67
2022/08/08 13:41:16;;;;;;;56.63;2.20;;;;;;;;;;5091757;28;20474;-67
2022/08/08 13:43:43;;;;;;;56.13;2.23;;;;;;;;;;5091746;28;20454;-67
2022/08/08 13:46:11;;;;;;;56.37;2.30;;;;;;;;;;5091722;28;20446;-67
2022/08/08 13:48:45;;;;;;;56.43;2.20;;;;;;;;;;5094673;28;20569;-67
2022/08/08 13:51:13;;;;;;;55.97;2.20;;;;;;;;;;5095424;28;20470;-67
2022/08/08 13:53:40;;;;;;;55.97;2.10;;;;;;;;;;5095471;28;20521;-67
2022/08/08 13:56:08;;;;;;;56.20;2.20;;;;;;;;;;5095561;28;20826;-67
2022/08/08 13:58:37;;;;;;;56.17;2.40;;;;;;;;;;5095068;28;20445;-67
2022/08/08 14:01:15;;;;;;;56.57;2.13;;;;;;;;;;5095335;28;20466;-67
2022/08/08 14:03:51;;;;;;;56.00;2.70;;;;;;;;;;5095528;28;20453;-68
2022/08/08 14:06:18;;;;;;;56.80;2.27;;;;;;;;;;5095212;28;20956;-67
2022/08/08 14:08:46;;;;;;;56.33;2.20;;;;;;;;;;5094734;28;20484;-67
2022/08/08 14:11:13;;;;;;;56.33;2.37;;;;;;;;;;5095065;28;20815;-67
2022/08/08 14:13:42;;;;;;;55.70;2.00;;;;;;;;;;5095133;28;20822;-67
2022/08/08 14:16:09;;;;;;;56.60;2.20;;;;;;;;;;5094983;28;20443;-67
2022/08/08 14:18:36;;;;;;;55.70;2.00;;;;;;;;;;5094665;28;20442;-67
2022/08/08 14:21:04;;;;;;;56.17;2.10;;;;;;;;;;5095056;28;20466;-67
2022/08/08 14:23:40;;;;;;;56.17;2.20;;;;;;;;;;5095246;28;20914;-67
2022/08/08 14:26:07;;;;;;;57.60;2.63;;;;;;;;;;5094884;28;20456;-68
2022/08/08 14:28:34;;;;;;;56.03;2.10;;;;;;;;;;5094796;28;20481;-67
2022/08/08 14:31:11;;;;;;;56.37;2.20;;;;;;;;;;5094618;28;21004;-67
2022/08/08 14:33:38;;;;;;;55.67;1.97;;;;;;;;;;5094692;28;20976;-67
2022/08/08 14:36:08;;;;;;;56.50;2.03;;;;;;;;;;5094760;28;20442;-67
2022/08/08 14:38:36;;;;;;;56.03;2.13;;;;;;;;;;5094352;28;20443;-67
2022/08/08 14:41:10;;;;;;;56.47;2.10;;;;;;;;;;5094387;28;20471;-67
2022/08/08 14:43:44;;;;;;;56.17;2.30;;;;;;;;;;5094748;28;20453;-67
2022/08/08 14:46:13;;;;;;;56.37;2.10;;;;;;;;;;5094647;28;20460;-67
2022/08/08 14:48:42;;;;;;;56.17;2.10;;;;;;;;;;5093940;28;20478;-67
2022/08/08 14:51:11;;;;;;;56.10;2.13;;;;;;;;;;5094247;28;20467;-67
2022/08/08 14:53:39;;;;;;;55.90;2.40;;;;;;;;;;5094654;28;20453;-67
2022/08/08 14:56:06;;;;;;;56.47;2.10;;;;;;;;;;5094365;28;20449;-67
2022/08/08 14:58:33;;;;;;;56.47;2.30;;;;;;;;;;5093542;28;20450;-67
2022/08/08 15:01:00;;;;;;;56.57;1.93;;;;;;;;;;5094097;28;21065;-67
2022/08/08 15:03:29;;;;;;;56.63;2.40;;;;;;;;;;5094188;28;20447;-67